createdAt,value
2017-09-16T00:00:22.187Z,20.82
2017-09-16T00:00:50.437Z,20.95
2017-09-16T00:01:18.440Z,20.98
2017-09-16T00:01:46.550Z,20.95
2017-09-16T00:02:14.472Z,20.95
2017-09-16T00:02:42.542Z,20.95
2017-09-16T00:03:10.566Z,20.92
2017-09-16T00:03:38.497Z,20.85
2017-09-16T00:04:06.451Z,20.96
2017-09-16T00:04:34.585Z,20.92
2017-09-16T00:05:02.522Z,21
2017-09-16T00:05:30.332Z,20.95
2017-09-16T00:05:58.589Z,20.98
2017-09-16T00:06:26.615Z,20.9
2017-09-16T00:06:54.708Z,20.88
2017-09-16T00:07:22.825Z,20.82
2017-09-16T00:07:50.728Z,20.83
2017-09-16T00:08:18.875Z,20.86
2017-09-16T00:08:46.792Z,20.83
2017-09-16T00:09:14.843Z,20.82
2017-09-16T00:09:42.795Z,20.9
2017-09-16T00:10:10.830Z,20.88
2017-09-16T00:10:38.854Z,20.9
2017-09-16T00:11:06.872Z,20.89
2017-09-16T00:11:34.570Z,20.9
2017-09-16T00:12:02.486Z,20.86
2017-09-16T00:12:30.412Z,20.9
2017-09-16T00:12:58.529Z,20.8
2017-09-16T00:13:26.872Z,20.74
2017-09-16T00:13:54.907Z,20.89
2017-09-16T00:14:22.827Z,20.86
2017-09-16T00:14:50.902Z,20.88
2017-09-16T00:15:18.838Z,20.78
2017-09-16T00:15:47.165Z,20.8
2017-09-16T00:16:15.074Z,20.75
2017-09-16T00:16:42.791Z,20.78
2017-09-16T00:17:10.600Z,20.78
2017-09-16T00:17:38.633Z,20.77
2017-09-16T00:18:06.575Z,20.74
2017-09-16T00:18:34.592Z,20.77
2017-09-16T00:19:02.763Z,20.74
2017-09-16T00:19:30.878Z,20.75
2017-09-16T00:19:58.909Z,20.77
2017-09-16T00:20:27.004Z,20.73
2017-09-16T00:20:54.889Z,20.74
2017-09-16T00:21:23.034Z,20.74
2017-09-16T00:21:51.189Z,20.83
2017-09-16T00:22:20.176Z,20.77
2017-09-16T00:22:48.297Z,20.83
2017-09-16T00:23:16.312Z,20.8
2017-09-16T00:23:44.449Z,20.82
2017-09-16T00:24:12.317Z,20.89
2017-09-16T00:24:40.387Z,20.85
2017-09-16T00:25:08.536Z,20.77
2017-09-16T00:25:36.549Z,20.85
2017-09-16T00:26:04.665Z,20.89
2017-09-16T00:26:32.560Z,20.9
2017-09-16T00:27:00.586Z,20.89
2017-09-16T00:27:28.728Z,20.86
2017-09-16T00:27:56.661Z,20.77
2017-09-16T00:28:24.670Z,20.73
2017-09-16T00:28:52.846Z,20.89
2017-09-16T00:29:20.863Z,20.86
2017-09-16T00:29:48.905Z,20.75
2017-09-16T00:30:17.414Z,20.73
2017-09-16T00:30:46.491Z,20.78
2017-09-16T00:31:14.529Z,20.77
2017-09-16T00:31:43.009Z,20.77
2017-09-16T00:32:11.186Z,20.77
2017-09-16T00:32:39.182Z,20.73
2017-09-16T00:33:07.018Z,20.67
2017-09-16T00:33:35.158Z,20.64
2017-09-16T00:34:03.102Z,20.56
2017-09-16T00:34:31.118Z,20.59
2017-09-16T00:34:58.974Z,20.55
2017-09-16T00:35:27.004Z,20.53
2017-09-16T00:35:55.010Z,20.48
2017-09-16T00:36:23.139Z,20.42
2017-09-16T00:36:50.974Z,20.39
2017-09-16T00:37:19.232Z,20.4
2017-09-16T00:37:47.244Z,20.52
2017-09-16T00:38:15.188Z,20.29
2017-09-16T00:38:43.113Z,20.37
2017-09-16T00:39:11.161Z,20.29
2017-09-16T00:39:39.096Z,20.3
2017-09-16T00:40:08.102Z,20.27
2017-09-16T00:40:35.967Z,20.29
2017-09-16T00:41:03.998Z,20.36
2017-09-16T00:41:31.954Z,20.29
2017-09-16T00:41:59.974Z,20.34
2017-09-16T00:42:27.877Z,20.24
2017-09-16T00:42:56.104Z,20.32
2017-09-16T00:43:24.230Z,20.37
2017-09-16T00:43:52.163Z,20.24
2017-09-16T00:44:20.107Z,20.33
2017-09-16T00:44:48.268Z,20.32
2017-09-16T00:45:16.296Z,20.34
2017-09-16T00:45:44.336Z,20.33
2017-09-16T00:46:12.560Z,20.29
2017-09-16T00:46:40.724Z,20.27
2017-09-16T00:47:08.761Z,20.3
2017-09-16T00:47:36.788Z,20.36
2017-09-16T00:48:04.840Z,20.32
2017-09-16T00:48:32.967Z,20.3
2017-09-16T00:49:00.784Z,20.27
2017-09-16T00:49:29.893Z,20.44
2017-09-16T00:49:58.719Z,20.37
2017-09-16T00:50:27.572Z,20.32
2017-09-16T00:50:56.426Z,20.26
2017-09-16T00:51:24.756Z,20.33
2017-09-16T00:51:52.699Z,20.33
2017-09-16T00:52:21.202Z,20.36
2017-09-16T00:52:49.255Z,20.4
2017-09-16T00:53:18.076Z,20.3
2017-09-16T00:53:45.895Z,20.4
2017-09-16T00:54:14.027Z,20.29
2017-09-16T00:54:42.108Z,20.29
2017-09-16T00:55:10.153Z,20.27
2017-09-16T00:55:38.243Z,20.4
2017-09-16T00:56:06.167Z,20.39
2017-09-16T00:56:34.123Z,20.48
2017-09-16T00:57:02.139Z,20.48
2017-09-16T00:57:30.041Z,20.4
2017-09-16T00:57:58.169Z,20.42
2017-09-16T00:58:26.078Z,20.37
2017-09-16T00:58:54.087Z,20.4
2017-09-16T00:59:21.913Z,20.44
2017-09-16T00:59:50.099Z,20.44
2017-09-16T01:00:18.218Z,20.42
2017-09-16T01:00:46.272Z,20.48
2017-09-16T01:01:14.521Z,20.39
2017-09-16T01:01:42.552Z,20.46
2017-09-16T01:02:10.708Z,20.42
2017-09-16T01:02:38.747Z,20.4
2017-09-16T01:03:06.790Z,20.44
2017-09-16T01:03:34.900Z,20.37
2017-09-16T01:04:03.042Z,20.33
2017-09-16T01:04:31.055Z,20.32
2017-09-16T01:04:59.059Z,20.4
2017-09-16T01:05:26.990Z,20.46
2017-09-16T01:05:55.127Z,20.48
2017-09-16T01:06:23.107Z,20.39
2017-09-16T01:06:51.247Z,20.34
2017-09-16T01:07:19.372Z,20.37
2017-09-16T01:07:47.407Z,20.42
2017-09-16T01:08:15.433Z,20.44
2017-09-16T01:08:43.349Z,20.39
2017-09-16T01:09:11.467Z,20.46
2017-09-16T01:09:39.421Z,20.42
2017-09-16T01:10:07.346Z,20.42
2017-09-16T01:10:35.300Z,20.39
2017-09-16T01:11:03.513Z,20.39
2017-09-16T01:11:31.425Z,20.4
2017-09-16T01:11:59.470Z,20.42
2017-09-16T01:12:27.612Z,20.4
2017-09-16T01:12:55.771Z,20.49
2017-09-16T01:13:23.911Z,20.46
2017-09-16T01:13:52.015Z,20.46
2017-09-16T01:14:20.147Z,20.4
2017-09-16T01:14:48.047Z,20.33
2017-09-16T01:15:16.072Z,20.4
2017-09-16T01:15:44.181Z,20.44
2017-09-16T01:16:12.105Z,20.24
2017-09-16T01:16:40.139Z,20.29
2017-09-16T01:17:08.173Z,20.33
2017-09-16T01:17:36.307Z,20.36
2017-09-16T01:18:04.439Z,20.36
2017-09-16T01:18:32.538Z,20.34
2017-09-16T01:19:00.252Z,20.32
2017-09-16T01:19:28.370Z,20.26
2017-09-16T01:19:56.501Z,20.19
2017-09-16T01:20:24.631Z,20.29
2017-09-16T01:20:52.755Z,20.21
2017-09-16T01:21:20.774Z,20.24
2017-09-16T01:21:48.820Z,20.27
2017-09-16T01:22:17.509Z,20.22
2017-09-16T01:22:46.956Z,20.18
2017-09-16T01:23:15.668Z,20.18
2017-09-16T01:23:44.175Z,20.24
2017-09-16T01:24:15.102Z,20.21
2017-09-16T01:24:43.127Z,20.15
2017-09-16T01:25:11.143Z,20.12
2017-09-16T01:25:39.169Z,20.17
2017-09-16T01:26:07.294Z,20.07
2017-09-16T01:26:35.320Z,20.08
2017-09-16T01:27:04.225Z,20.04
2017-09-16T01:27:32.333Z,20.02
2017-09-16T01:28:00.255Z,20.07
2017-09-16T01:28:28.411Z,20.03
2017-09-16T01:28:56.415Z,19.97
2017-09-16T01:29:24.324Z,19.94
2017-09-16T01:29:52.335Z,20
2017-09-16T01:30:20.364Z,19.94
2017-09-16T01:30:48.402Z,19.96
2017-09-16T01:31:16.510Z,19.99
2017-09-16T01:31:44.346Z,20
2017-09-16T01:32:12.486Z,19.99
2017-09-16T01:32:40.581Z,19.97
2017-09-16T01:33:08.592Z,19.97
2017-09-16T01:33:36.719Z,19.92
2017-09-16T01:34:04.760Z,19.97
2017-09-16T01:34:32.687Z,19.94
2017-09-16T01:35:01.512Z,20.02
2017-09-16T01:35:29.550Z,19.94
2017-09-16T01:35:57.608Z,19.84
2017-09-16T01:36:25.629Z,19.87
2017-09-16T01:36:53.756Z,19.82
2017-09-16T01:37:22.659Z,19.85
2017-09-16T01:37:50.670Z,19.9
2017-09-16T01:38:18.698Z,19.87
2017-09-16T01:38:46.609Z,19.85
2017-09-16T01:39:14.644Z,19.87
2017-09-16T01:39:42.678Z,19.82
2017-09-16T01:40:10.709Z,19.84
2017-09-16T01:40:38.842Z,19.82
2017-09-16T01:41:06.968Z,19.84
2017-09-16T01:41:35.096Z,19.84
2017-09-16T01:42:03.829Z,19.81
2017-09-16T01:42:31.856Z,19.82
2017-09-16T01:42:59.873Z,19.77
2017-09-16T01:43:28.109Z,19.7
2017-09-16T01:43:56.233Z,19.71
2017-09-16T01:44:24.354Z,19.71
2017-09-16T01:44:52.509Z,19.75
2017-09-16T01:45:20.637Z,19.81
2017-09-16T01:45:48.553Z,19.77
2017-09-16T01:46:16.492Z,19.79
2017-09-16T01:46:44.526Z,19.82
2017-09-16T01:47:12.618Z,19.77
2017-09-16T01:47:40.724Z,19.85
2017-09-16T01:48:08.838Z,19.79
2017-09-16T01:48:36.949Z,19.85
2017-09-16T01:49:04.684Z,19.82
2017-09-16T01:49:32.706Z,19.85
2017-09-16T01:50:00.756Z,19.89
2017-09-16T01:50:29.653Z,19.84
2017-09-16T01:50:57.687Z,19.87
2017-09-16T01:51:25.711Z,19.87
2017-09-16T01:51:53.754Z,19.89
2017-09-16T01:52:22.668Z,19.94
2017-09-16T01:52:50.812Z,19.94
2017-09-16T01:53:18.950Z,19.96
2017-09-16T01:53:47.077Z,19.94
2017-09-16T01:54:15.206Z,19.96
2017-09-16T01:54:43.170Z,19.94
2017-09-16T01:55:11.201Z,19.96
2017-09-16T01:55:39.357Z,20
2017-09-16T01:56:08.232Z,20.02
2017-09-16T01:56:36.232Z,19.99
2017-09-16T01:57:04.258Z,20.04
2017-09-16T01:57:32.310Z,20
2017-09-16T01:58:00.329Z,20.07
2017-09-16T01:58:28.360Z,20
2017-09-16T01:58:56.403Z,20.07
2017-09-16T01:59:24.526Z,20.03
2017-09-16T01:59:52.681Z,20.02
2017-09-16T02:00:20.620Z,19.97
2017-09-16T02:00:48.741Z,19.94
2017-09-16T02:01:16.856Z,19.93
2017-09-16T02:01:44.981Z,19.9
2017-09-16T02:02:13.096Z,19.96
2017-09-16T02:02:41.234Z,19.92
2017-09-16T02:03:09.062Z,19.97
2017-09-16T02:03:37.084Z,19.93
2017-09-16T02:04:05.228Z,19.89
2017-09-16T02:04:33.276Z,19.99
2017-09-16T02:05:01.308Z,19.89
2017-09-16T02:05:29.419Z,19.94
2017-09-16T02:05:57.650Z,19.94
2017-09-16T02:06:25.512Z,19.96
2017-09-16T02:06:53.641Z,19.94
2017-09-16T02:07:21.813Z,19.99
2017-09-16T02:07:49.719Z,19.96
2017-09-16T02:08:17.828Z,19.96
2017-09-16T02:08:45.775Z,19.96
2017-09-16T02:09:13.687Z,19.87
2017-09-16T02:09:41.931Z,20.02
2017-09-16T02:10:09.953Z,19.87
2017-09-16T02:10:37.932Z,19.82
2017-09-16T02:11:05.862Z,19.84
2017-09-16T02:11:33.604Z,19.85
2017-09-16T02:12:01.527Z,19.85
2017-09-16T02:12:29.478Z,19.89
2017-09-16T02:12:57.518Z,19.84
2017-09-16T02:13:25.550Z,19.85
2017-09-16T02:13:53.635Z,19.84
2017-09-16T02:14:21.676Z,19.82
2017-09-16T02:14:49.606Z,19.84
2017-09-16T02:15:17.562Z,19.82
2017-09-16T02:15:45.663Z,19.84
2017-09-16T02:16:13.695Z,19.82
2017-09-16T02:16:41.790Z,19.79
2017-09-16T02:17:09.834Z,19.79
2017-09-16T02:17:37.658Z,19.82
2017-09-16T02:18:05.671Z,19.79
2017-09-16T02:18:33.686Z,19.78
2017-09-16T02:19:01.707Z,19.81
2017-09-16T02:19:29.834Z,19.77
2017-09-16T02:19:57.866Z,19.84
2017-09-16T02:20:25.889Z,19.79
2017-09-16T02:20:54.005Z,19.82
2017-09-16T02:21:22.153Z,19.78
2017-09-16T02:21:50.092Z,19.84
2017-09-16T02:22:18.135Z,19.82
2017-09-16T02:22:46.248Z,19.84
2017-09-16T02:23:14.413Z,19.87
2017-09-16T02:23:42.476Z,19.92
2017-09-16T02:24:10.588Z,19.84
2017-09-16T02:24:38.620Z,19.85
2017-09-16T02:25:06.758Z,19.9
2017-09-16T02:25:34.892Z,19.89
2017-09-16T02:26:03.007Z,19.9
2017-09-16T02:26:31.003Z,19.87
2017-09-16T02:26:59.149Z,19.85
2017-09-16T02:27:27.265Z,19.84
2017-09-16T02:27:55.286Z,19.82
2017-09-16T02:28:23.393Z,19.87
2017-09-16T02:28:51.440Z,19.85
2017-09-16T02:29:19.466Z,19.89
2017-09-16T02:29:47.689Z,19.79
2017-09-16T02:30:15.717Z,19.85
2017-09-16T02:30:43.734Z,19.89
2017-09-16T02:31:11.856Z,19.89
2017-09-16T02:31:39.765Z,19.87
2017-09-16T02:32:07.881Z,19.84
2017-09-16T02:32:35.886Z,19.89
2017-09-16T02:33:04.012Z,19.87
2017-09-16T02:33:32.010Z,19.82
2017-09-16T02:34:00.133Z,19.81
2017-09-16T02:34:28.050Z,19.81
2017-09-16T02:34:56.183Z,19.84
2017-09-16T02:35:24.332Z,19.85
2017-09-16T02:35:52.488Z,19.84
2017-09-16T02:36:20.409Z,19.85
2017-09-16T02:36:48.428Z,19.84
2017-09-16T02:37:16.569Z,19.82
2017-09-16T02:37:44.719Z,19.89
2017-09-16T02:38:12.754Z,19.84
2017-09-16T02:38:40.684Z,19.82
2017-09-16T02:39:08.823Z,19.84
2017-09-16T02:39:36.920Z,19.85
2017-09-16T02:40:04.962Z,19.84
2017-09-16T02:40:32.996Z,19.82
2017-09-16T02:41:00.898Z,19.64
2017-09-16T02:41:29.017Z,19.71
2017-09-16T02:41:56.938Z,19.7
2017-09-16T02:42:24.973Z,19.81
2017-09-16T02:42:52.892Z,19.74
2017-09-16T02:43:20.822Z,19.72
2017-09-16T02:43:48.856Z,19.78
2017-09-16T02:44:16.871Z,19.78
2017-09-16T02:44:44.894Z,19.74
2017-09-16T02:45:13.771Z,19.63
2017-09-16T02:45:42.133Z,19.7
2017-09-16T02:46:10.128Z,19.82
2017-09-16T02:46:38.266Z,19.82
2017-09-16T02:47:06.478Z,19.87
2017-09-16T02:47:34.517Z,19.84
2017-09-16T02:48:02.560Z,19.79
2017-09-16T02:48:30.707Z,19.84
2017-09-16T02:48:58.724Z,19.93
2017-09-16T02:49:26.753Z,19.9
2017-09-16T02:49:54.862Z,19.89
2017-09-16T02:50:22.878Z,19.85
2017-09-16T02:50:50.983Z,19.85
2017-09-16T02:51:19.020Z,19.87
2017-09-16T02:51:47.128Z,19.89
2017-09-16T02:52:14.933Z,19.84
2017-09-16T02:52:42.915Z,19.89
2017-09-16T02:53:10.824Z,19.85
2017-09-16T02:53:38.735Z,19.82
2017-09-16T02:54:06.753Z,19.87
2017-09-16T02:54:34.882Z,19.85
2017-09-16T02:55:02.907Z,19.92
2017-09-16T02:55:30.911Z,19.97
2017-09-16T02:55:59.016Z,19.96
2017-09-16T02:56:27.172Z,19.89
2017-09-16T02:56:55.326Z,19.93
2017-09-16T02:57:23.477Z,19.96
2017-09-16T02:57:51.710Z,19.97
2017-09-16T02:58:19.851Z,20
2017-09-16T02:58:47.884Z,19.97
2017-09-16T02:59:16.028Z,19.94
2017-09-16T02:59:43.980Z,19.94
2017-09-16T03:00:11.889Z,19.99
2017-09-16T03:00:39.816Z,19.94
2017-09-16T03:01:07.969Z,19.96
2017-09-16T03:01:35.981Z,19.84
2017-09-16T03:02:04.140Z,19.87
2017-09-16T03:02:32.244Z,19.87
2017-09-16T03:03:00.257Z,19.85
2017-09-16T03:03:28.320Z,19.85
2017-09-16T03:03:56.240Z,19.85
2017-09-16T03:04:24.163Z,19.89
2017-09-16T03:04:52.144Z,19.84
2017-09-16T03:05:20.175Z,19.87
2017-09-16T03:05:48.312Z,19.82
2017-09-16T03:06:17.181Z,19.85
2017-09-16T03:06:45.016Z,19.84
2017-09-16T03:07:12.944Z,19.89
2017-09-16T03:07:41.114Z,19.84
2017-09-16T03:08:09.236Z,19.82
2017-09-16T03:08:37.379Z,19.82
2017-09-16T03:09:05.395Z,19.9
2017-09-16T03:09:33.499Z,19.85
2017-09-16T03:10:01.628Z,19.82
2017-09-16T03:10:29.761Z,19.84
2017-09-16T03:10:57.846Z,19.87
2017-09-16T03:11:25.759Z,19.89
2017-09-16T03:11:53.884Z,19.89
2017-09-16T03:12:21.838Z,19.89
2017-09-16T03:12:49.978Z,19.85
2017-09-16T03:13:18.083Z,19.87
2017-09-16T03:13:46.128Z,19.87
2017-09-16T03:14:14.162Z,19.81
2017-09-16T03:14:42.336Z,19.85
2017-09-16T03:15:10.554Z,19.87
2017-09-16T03:15:38.472Z,19.89
2017-09-16T03:16:06.724Z,19.82
2017-09-16T03:16:34.721Z,19.93
2017-09-16T03:17:02.641Z,19.87
2017-09-16T03:17:30.771Z,19.84
2017-09-16T03:17:58.777Z,19.9
2017-09-16T03:18:26.870Z,19.87
2017-09-16T03:18:54.893Z,19.87
2017-09-16T03:19:22.806Z,19.87
2017-09-16T03:19:50.941Z,19.85
2017-09-16T03:20:18.975Z,19.85
2017-09-16T03:20:46.986Z,19.82
2017-09-16T03:21:15.197Z,19.89
2017-09-16T03:21:43.225Z,19.82
2017-09-16T03:22:11.264Z,19.85
2017-09-16T03:22:39.217Z,19.81
2017-09-16T03:23:08.136Z,19.87
2017-09-16T03:23:36.046Z,19.82
2017-09-16T03:24:03.944Z,19.92
2017-09-16T03:24:32.056Z,19.85
2017-09-16T03:25:00.042Z,19.89
2017-09-16T03:25:27.993Z,19.85
2017-09-16T03:25:56.125Z,19.84
2017-09-16T03:26:24.167Z,19.82
2017-09-16T03:26:52.088Z,19.85
2017-09-16T03:27:20.118Z,19.93
2017-09-16T03:27:48.059Z,19.9
2017-09-16T03:28:16.055Z,20
2017-09-16T03:28:44.068Z,19.87
2017-09-16T03:29:12.196Z,19.85
2017-09-16T03:29:40.140Z,19.9
2017-09-16T03:30:08.051Z,19.85
2017-09-16T03:30:35.935Z,19.87
2017-09-16T03:31:04.062Z,19.9
2017-09-16T03:31:32.208Z,19.9
2017-09-16T03:32:00.228Z,19.93
2017-09-16T03:32:28.354Z,19.82
2017-09-16T03:32:56.482Z,19.89
2017-09-16T03:33:24.393Z,19.82
2017-09-16T03:33:52.306Z,19.84
2017-09-16T03:34:20.334Z,19.94
2017-09-16T03:34:48.465Z,19.89
2017-09-16T03:35:16.588Z,19.87
2017-09-16T03:35:44.589Z,19.9
2017-09-16T03:36:12.711Z,19.85
2017-09-16T03:36:40.845Z,19.85
2017-09-16T03:37:09.003Z,19.85
2017-09-16T03:37:36.941Z,19.81
2017-09-16T03:38:05.040Z,19.81
2017-09-16T03:38:33.117Z,19.78
2017-09-16T03:39:01.050Z,19.79
2017-09-16T03:39:29.402Z,19.75
2017-09-16T03:39:57.360Z,19.71
2017-09-16T03:40:25.295Z,19.79
2017-09-16T03:40:53.309Z,19.82
2017-09-16T03:41:21.755Z,19.81
2017-09-16T03:41:49.872Z,19.81
2017-09-16T03:42:17.878Z,19.79
2017-09-16T03:42:45.796Z,19.77
2017-09-16T03:43:13.932Z,19.79
2017-09-16T03:43:42.061Z,19.77
2017-09-16T03:44:09.965Z,19.63
2017-09-16T03:44:37.903Z,19.71
2017-09-16T03:45:05.950Z,19.67
2017-09-16T03:45:33.983Z,19.64
2017-09-16T03:46:02.094Z,19.63
2017-09-16T03:46:30.328Z,19.74
2017-09-16T03:46:58.452Z,19.74
2017-09-16T03:47:26.492Z,19.75
2017-09-16T03:47:54.527Z,19.79
2017-09-16T03:48:23.223Z,19.81
2017-09-16T03:48:51.146Z,19.78
2017-09-16T03:49:18.980Z,19.72
2017-09-16T03:49:47.124Z,19.72
2017-09-16T03:50:15.155Z,19.75
2017-09-16T03:50:43.311Z,19.75
2017-09-16T03:51:11.353Z,19.71
2017-09-16T03:51:39.504Z,19.66
2017-09-16T03:52:07.503Z,19.64
2017-09-16T03:52:35.653Z,19.64
2017-09-16T03:53:03.760Z,19.64
2017-09-16T03:53:31.677Z,19.6
2017-09-16T03:53:59.714Z,19.67
2017-09-16T03:54:27.851Z,19.56
2017-09-16T03:54:55.858Z,19.57
2017-09-16T03:55:23.972Z,19.6
2017-09-16T03:55:52.115Z,19.55
2017-09-16T03:56:20.337Z,19.59
2017-09-16T03:56:48.479Z,19.6
2017-09-16T03:57:16.512Z,19.56
2017-09-16T03:57:44.525Z,19.57
2017-09-16T03:58:12.246Z,19.57
2017-09-16T03:58:40.274Z,19.57
2017-09-16T03:59:08.389Z,19.49
2017-09-16T03:59:36.389Z,19.56
2017-09-16T04:00:04.512Z,19.52
2017-09-16T04:00:32.523Z,19.59
2017-09-16T04:01:00.430Z,19.59
2017-09-16T04:01:28.539Z,19.48
2017-09-16T04:01:56.658Z,19.53
2017-09-16T04:02:24.801Z,19.55
2017-09-16T04:02:52.839Z,19.42
2017-09-16T04:03:20.969Z,19.42
2017-09-16T04:03:49.004Z,19.45
2017-09-16T04:04:16.842Z,19.41
2017-09-16T04:04:44.923Z,19.48
2017-09-16T04:05:12.990Z,19.39
2017-09-16T04:05:41.006Z,19.34
2017-09-16T04:06:09.015Z,19.34
2017-09-16T04:06:37.147Z,19.39
2017-09-16T04:07:05.158Z,19.38
2017-09-16T04:07:33.282Z,19.3
2017-09-16T04:08:01.527Z,19.37
2017-09-16T04:08:29.655Z,19.37
2017-09-16T04:08:57.673Z,19.39
2017-09-16T04:09:25.780Z,19.35
2017-09-16T04:09:53.925Z,19.41
2017-09-16T04:10:21.960Z,19.39
2017-09-16T04:10:50.098Z,19.34
2017-09-16T04:11:18.235Z,19.37
2017-09-16T04:11:46.259Z,19.42
2017-09-16T04:12:14.368Z,19.41
2017-09-16T04:12:42.598Z,19.48
2017-09-16T04:13:10.728Z,19.41
2017-09-16T04:13:38.754Z,19.41
2017-09-16T04:14:06.863Z,19.48
2017-09-16T04:14:34.808Z,19.39
2017-09-16T04:15:02.946Z,19.37
2017-09-16T04:15:30.974Z,19.39
2017-09-16T04:15:59.000Z,19.38
2017-09-16T04:16:27.036Z,19.37
2017-09-16T04:16:54.867Z,19.37
2017-09-16T04:17:22.773Z,19.34
2017-09-16T04:17:50.885Z,19.34
2017-09-16T04:18:18.931Z,19.34
2017-09-16T04:18:46.742Z,19.34
2017-09-16T04:19:14.738Z,19.34
2017-09-16T04:19:42.860Z,19.41
2017-09-16T04:20:10.993Z,19.35
2017-09-16T04:20:39.103Z,19.35
2017-09-16T04:21:07.249Z,19.38
2017-09-16T04:21:35.293Z,19.41
2017-09-16T04:22:03.214Z,19.44
2017-09-16T04:22:31.234Z,19.34
2017-09-16T04:22:59.384Z,19.38
2017-09-16T04:23:27.506Z,19.41
2017-09-16T04:23:55.633Z,19.35
2017-09-16T04:24:23.642Z,19.41
2017-09-16T04:24:51.588Z,19.39
2017-09-16T04:25:19.613Z,19.35
2017-09-16T04:25:47.715Z,19.39
2017-09-16T04:26:15.644Z,19.42
2017-09-16T04:26:43.790Z,19.41
2017-09-16T04:27:11.910Z,19.32
2017-09-16T04:27:40.117Z,19.41
2017-09-16T04:28:08.270Z,19.38
2017-09-16T04:28:36.407Z,19.34
2017-09-16T04:29:04.610Z,19.29
2017-09-16T04:29:32.626Z,19.32
2017-09-16T04:30:00.763Z,19.37
2017-09-16T04:30:28.922Z,19.29
2017-09-16T04:30:57.426Z,19.32
2017-09-16T04:31:25.474Z,19.32
2017-09-16T04:31:53.635Z,19.26
2017-09-16T04:32:21.648Z,19.37
2017-09-16T04:32:49.771Z,19.35
2017-09-16T04:33:17.776Z,19.39
2017-09-16T04:33:45.681Z,19.39
2017-09-16T04:34:13.801Z,19.34
2017-09-16T04:34:41.647Z,19.37
2017-09-16T04:35:09.670Z,19.35
2017-09-16T04:35:37.822Z,19.41
2017-09-16T04:36:05.853Z,19.35
2017-09-16T04:36:34.086Z,19.42
2017-09-16T04:37:02.113Z,19.3
2017-09-16T04:37:30.033Z,19.37
2017-09-16T04:37:58.166Z,19.38
2017-09-16T04:38:26.203Z,19.35
2017-09-16T04:38:54.001Z,19.3
2017-09-16T04:39:22.025Z,19.3
2017-09-16T04:39:50.386Z,19.26
2017-09-16T04:40:18.469Z,19.27
2017-09-16T04:40:46.843Z,19.22
2017-09-16T04:41:15.771Z,19.12
2017-09-16T04:41:43.782Z,19.17
2017-09-16T04:42:11.771Z,19.23
2017-09-16T04:42:39.699Z,19.2
2017-09-16T04:43:07.823Z,19.11
2017-09-16T04:43:35.761Z,19.23
2017-09-16T04:44:03.793Z,19.2
2017-09-16T04:44:31.844Z,19.22
2017-09-16T04:44:59.743Z,19.19
2017-09-16T04:45:27.678Z,19.16
2017-09-16T04:45:55.728Z,19.09
2017-09-16T04:46:23.858Z,19.12
2017-09-16T04:46:51.778Z,19.09
2017-09-16T04:47:19.804Z,19.01
2017-09-16T04:47:47.701Z,19.08
2017-09-16T04:48:15.733Z,19.08
2017-09-16T04:48:43.869Z,19.05
2017-09-16T04:49:12.004Z,19.09
2017-09-16T04:49:40.053Z,19
2017-09-16T04:50:08.164Z,19
2017-09-16T04:50:36.289Z,19
2017-09-16T04:51:04.202Z,19.01
2017-09-16T04:51:32.269Z,18.94
2017-09-16T04:52:00.417Z,19
2017-09-16T04:52:28.340Z,18.96
2017-09-16T04:52:56.487Z,18.91
2017-09-16T04:53:24.508Z,18.98
2017-09-16T04:53:52.564Z,18.96
2017-09-16T04:54:20.675Z,18.98
2017-09-16T04:54:48.622Z,18.91
2017-09-16T04:55:16.724Z,18.94
2017-09-16T04:55:44.833Z,18.91
2017-09-16T04:56:12.896Z,18.88
2017-09-16T04:56:41.044Z,18.83
2017-09-16T04:57:09.075Z,18.94
2017-09-16T04:57:37.010Z,18.86
2017-09-16T04:58:04.978Z,18.89
2017-09-16T04:58:33.087Z,18.82
2017-09-16T04:59:01.113Z,18.86
2017-09-16T04:59:29.263Z,18.86
2017-09-16T04:59:57.292Z,18.89
2017-09-16T05:00:25.332Z,18.86
2017-09-16T05:00:53.164Z,18.91
2017-09-16T05:01:21.313Z,18.91
2017-09-16T05:01:49.434Z,18.97
2017-09-16T05:02:17.491Z,18.96
2017-09-16T05:02:45.494Z,19
2017-09-16T05:03:13.333Z,18.98
2017-09-16T05:03:41.223Z,19.05
2017-09-16T05:04:09.241Z,19.01
2017-09-16T05:04:37.333Z,19.01
2017-09-16T05:05:06.226Z,18.98
2017-09-16T05:05:34.258Z,19.01
2017-09-16T05:06:02.294Z,18.94
2017-09-16T05:06:30.421Z,18.97
2017-09-16T05:06:58.559Z,18.96
2017-09-16T05:07:26.593Z,18.94
2017-09-16T05:07:54.626Z,18.94
2017-09-16T05:08:22.746Z,19
2017-09-16T05:08:50.771Z,18.98
2017-09-16T05:09:18.882Z,18.98
2017-09-16T05:09:46.927Z,19
2017-09-16T05:10:14.934Z,18.92
2017-09-16T05:10:42.966Z,18.86
2017-09-16T05:11:11.005Z,19
2017-09-16T05:11:39.566Z,18.86
2017-09-16T05:12:07.584Z,18.86
2017-09-16T05:12:35.509Z,18.92
2017-09-16T05:13:03.220Z,18.96
2017-09-16T05:13:31.351Z,19
2017-09-16T05:13:59.415Z,18.91
2017-09-16T05:14:27.350Z,19
2017-09-16T05:14:55.472Z,19
2017-09-16T05:15:23.495Z,19
2017-09-16T05:15:51.613Z,19.04
2017-09-16T05:16:19.711Z,18.98
2017-09-16T05:16:47.946Z,19.01
2017-09-16T05:17:15.989Z,19
2017-09-16T05:17:43.942Z,18.98
2017-09-16T05:18:12.093Z,18.96
2017-09-16T05:18:40.119Z,19
2017-09-16T05:19:08.050Z,19
2017-09-16T05:19:36.090Z,19.09
2017-09-16T05:20:04.120Z,18.97
2017-09-16T05:20:32.239Z,19.05
2017-09-16T05:21:00.167Z,19.07
2017-09-16T05:21:28.297Z,19.04
2017-09-16T05:21:56.314Z,18.97
2017-09-16T05:22:24.420Z,18.96
2017-09-16T05:22:52.553Z,18.89
2017-09-16T05:23:20.380Z,18.89
2017-09-16T05:23:48.401Z,18.89
2017-09-16T05:24:16.535Z,18.89
2017-09-16T05:24:44.566Z,18.94
2017-09-16T05:25:12.587Z,18.88
2017-09-16T05:25:40.895Z,18.82
2017-09-16T05:26:09.012Z,18.82
2017-09-16T05:26:37.084Z,18.83
2017-09-16T05:27:05.336Z,18.92
2017-09-16T05:27:33.152Z,18.82
2017-09-16T05:28:01.065Z,18.85
2017-09-16T05:28:29.075Z,18.94
2017-09-16T05:28:57.201Z,18.91
2017-09-16T05:29:25.234Z,18.91
2017-09-16T05:29:53.413Z,18.86
2017-09-16T05:30:21.345Z,18.82
2017-09-16T05:30:49.343Z,18.82
2017-09-16T05:31:17.470Z,18.86
2017-09-16T05:31:45.524Z,18.81
2017-09-16T05:32:13.675Z,18.78
2017-09-16T05:32:41.514Z,18.76
2017-09-16T05:33:09.648Z,18.82
2017-09-16T05:33:37.652Z,18.71
2017-09-16T05:34:05.797Z,18.76
2017-09-16T05:34:33.826Z,18.73
2017-09-16T05:35:01.982Z,18.79
2017-09-16T05:35:29.895Z,18.66
2017-09-16T05:35:57.834Z,18.63
2017-09-16T05:36:25.830Z,18.63
2017-09-16T05:36:54.065Z,18.61
2017-09-16T05:37:22.021Z,18.6
2017-09-16T05:37:50.120Z,18.55
2017-09-16T05:38:18.164Z,18.63
2017-09-16T05:38:46.084Z,18.58
2017-09-16T05:39:14.106Z,18.6
2017-09-16T05:39:41.947Z,18.6
2017-09-16T05:40:09.860Z,18.66
2017-09-16T05:40:37.805Z,18.61
2017-09-16T05:41:05.948Z,18.55
2017-09-16T05:41:33.985Z,18.57
2017-09-16T05:42:02.024Z,18.6
2017-09-16T05:42:30.050Z,18.57
2017-09-16T05:42:58.174Z,18.52
2017-09-16T05:43:26.104Z,18.57
2017-09-16T05:43:54.035Z,18.6
2017-09-16T05:44:22.057Z,18.51
2017-09-16T05:44:50.135Z,18.53
2017-09-16T05:45:18.163Z,18.55
2017-09-16T05:45:46.284Z,18.6
2017-09-16T05:46:14.308Z,18.57
2017-09-16T05:46:42.346Z,18.55
2017-09-16T05:47:10.571Z,18.51
2017-09-16T05:47:38.405Z,18.53
2017-09-16T05:48:06.561Z,18.49
2017-09-16T05:48:34.600Z,18.52
2017-09-16T05:49:02.727Z,18.52
2017-09-16T05:49:30.679Z,18.46
2017-09-16T05:49:58.726Z,18.46
2017-09-16T05:50:26.754Z,18.45
2017-09-16T05:50:54.886Z,18.45
2017-09-16T05:51:22.934Z,18.46
2017-09-16T05:51:51.058Z,18.46
2017-09-16T05:52:19.071Z,18.46
2017-09-16T05:52:47.194Z,18.46
2017-09-16T05:53:15.201Z,18.49
2017-09-16T05:53:43.233Z,18.43
2017-09-16T05:54:11.371Z,18.52
2017-09-16T05:54:39.500Z,18.45
2017-09-16T05:55:07.547Z,18.52
2017-09-16T05:55:35.654Z,18.46
2017-09-16T05:56:03.691Z,18.53
2017-09-16T05:56:31.732Z,18.53
2017-09-16T05:56:59.986Z,18.45
2017-09-16T05:57:27.938Z,18.49
2017-09-16T05:57:55.999Z,18.46
2017-09-16T05:58:24.116Z,18.46
2017-09-16T05:58:52.248Z,18.45
2017-09-16T05:59:20.253Z,18.48
2017-09-16T05:59:48.243Z,18.48
2017-09-16T06:00:16.281Z,18.48
2017-09-16T06:00:44.381Z,18.43
2017-09-16T06:01:12.429Z,18.53
2017-09-16T06:01:40.470Z,18.46
2017-09-16T06:02:08.390Z,18.51
2017-09-16T06:02:36.492Z,18.52
2017-09-16T06:03:04.681Z,18.49
2017-09-16T06:03:32.710Z,18.49